International Virtual Aviation Organisation

Russian Federation and Kazakhstan MCD

 
URWA 271730Z 18002MPS CAVOK 00/M02 Q1032 R27/010070 NOSIG RMK QFE776/1034
QNH:(hPa/inHg/mmHg)1032 / 30.47 / 774
QFE:(hPa/inHg/mmHg)1034 / 30.55 / 776
Temperature0
Dew Point-2
Visibility> 10000
WeatherCAVOK
Cloud Cover
Transition Height600 m./2000 ft.
Transition LevelFL30
SQUAWK